Terminal Aerodrome Forecast
Issued by NWS

Home | Current Version | Previous Version | Text Only | Print | Product List | Glossary On
Versions: 1 2 3 4 5 6 7 8 9 10 11 12 13 14 15 16 17 18 19 20 21 22 23 24 25 26 27 28 29 30 31 32 33 34 35 36 37 38
000
FTUS41 KRNK 221721
TAFLWB
TAF
KLWB 221721Z 2218/2318 24004KT P6SM SCT060
     FM230700 00000KT 3SM BR SKC
     FM231000 00000KT 1SM BR SCT001
      TEMPO 2310/2312 1/4SM FG OVC001
     FM231230 VRB03KT P6SM FEW009
     FM231700 26010KT P6SM SCT050=

USA.gov is the U.S. government's official web portal to all federal, state and local government web resources and services.